createdAt,value
2022-08-07T00:01:12.862Z,31.3
2022-08-07T00:04:28.057Z,32.4
2022-08-07T00:06:51.510Z,31.6
2022-08-07T00:08:57.599Z,31.2
2022-08-07T00:11:35.237Z,31.2
2022-08-07T00:13:59.586Z,31.2
2022-08-07T00:16:21.671Z,31
2022-08-07T00:18:33.315Z,31.5
2022-08-07T03:42:32.840Z,38.6
2022-08-07T03:44:53.318Z,35.9
2022-08-07T03:47:29.489Z,35.8
2022-08-07T03:49:52.194Z,34.2
2022-08-07T03:52:04.685Z,32.7
2022-08-07T03:55:11.668Z,32.5
2022-08-07T03:59:15.184Z,32.9
2022-08-07T04:01:33.478Z,30.2
2022-08-07T04:03:55.847Z,32.6
2022-08-07T04:06:36.495Z,31.9
2022-08-07T04:08:40.683Z,31.4
2022-08-07T04:12:20.957Z,31.5
2022-08-07T04:15:11.909Z,31.8
2022-08-07T04:17:31.050Z,31.8
2022-08-07T04:21:13.627Z,31.6
2022-08-07T04:23:43.194Z,32.1
2022-08-07T04:26:06.173Z,31.8
2022-08-07T04:28:21.786Z,32.2
2022-08-07T04:30:59.522Z,32.1
2022-08-07T04:33:36.186Z,31.8
2022-08-07T04:35:51.463Z,30.8
2022-08-07T04:38:19.204Z,31.9
2022-08-07T04:40:34.110Z,32.2
2022-08-07T04:42:51.879Z,31.9
2022-08-07T04:46:03.131Z,32
2022-08-07T04:48:46.336Z,32.2
2022-08-07T04:51:01.213Z,30.6
2022-08-07T04:53:16.600Z,32.7
2022-08-07T05:00:09.153Z,31.6
2022-08-07T05:02:16.760Z,32.4
2022-08-07T05:04:54.565Z,32.4
2022-08-07T05:07:30.775Z,32.1
2022-08-07T05:10:16.351Z,32.2
2022-08-07T05:12:53.581Z,31.6
2022-08-07T05:16:31.958Z,31.7
2022-08-07T05:19:07.683Z,31.4
2022-08-07T05:21:58.773Z,31.2
2022-08-07T05:24:02.847Z,31.6
2022-08-07T05:26:58.881Z,30.9
2022-08-07T05:29:55.718Z,30.5
2022-08-07T05:32:10.600Z,31.7
2022-08-07T05:34:33.580Z,31.4
2022-08-07T05:36:52.640Z,31.2
2022-08-07T05:40:50.341Z,31.4
2022-08-07T05:43:43.300Z,31.3
2022-08-07T05:46:33.704Z,31.6
2022-08-07T05:49:09.041Z,30.5
2022-08-07T05:51:18.640Z,31.6
2022-08-07T05:54:44.246Z,30.9
2022-08-07T05:57:30.321Z,30.4
2022-08-07T05:59:55.658Z,31.8
2022-08-07T06:01:59.349Z,32
2022-08-07T06:04:33.924Z,31.1
2022-08-07T06:06:56.371Z,31.6
2022-08-07T06:10:23.100Z,31.1
2022-08-07T06:12:37.928Z,31.4
2022-08-07T06:15:39.556Z,31.7
2022-08-07T06:17:50.818Z,30.3
2022-08-07T06:20:25.362Z,30.5
2022-08-07T06:25:34.696Z,31.3
2022-08-07T06:28:03.921Z,30.4
2022-08-07T06:30:24.500Z,30.6
2022-08-07T06:32:37.353Z,31.9
2022-08-07T06:34:52.213Z,31.6
2022-08-07T06:37:22.226Z,31.4
2022-08-07T06:40:45.860Z,31.3
2022-08-07T06:43:23.750Z,31.2
2022-08-07T06:45:38.712Z,31.3
2022-08-07T06:48:05.502Z,31.7
2022-08-07T06:50:23.079Z,31.1
2022-08-07T06:52:37.911Z,31.3
2022-08-07T06:57:18.972Z,31.3
2022-08-07T07:01:04.325Z,31.3
2022-08-07T07:03:56.370Z,30.8
2022-08-07T07:07:00.830Z,31.1
2022-08-07T07:09:45.767Z,30.5
2022-08-07T07:12:48.635Z,31.7
2022-08-07T07:15:23.711Z,30.4
2022-08-07T07:17:38.730Z,30.6
2022-08-07T07:20:28.872Z,30.5
2022-08-07T07:24:58.588Z,30.3
2022-08-07T07:29:57.346Z,30.8
2022-08-07T07:32:20.020Z,30.5
2022-08-07T07:34:34.720Z,30.6
2022-08-07T07:37:14.893Z,31.7
2022-08-07T07:39:55.643Z,31.4
2022-08-07T07:42:33.125Z,30.5
2022-08-07T07:45:05.666Z,31.3
2022-08-07T07:48:39.947Z,31.3
2022-08-07T07:52:15.677Z,31.3
2022-08-07T07:54:30.095Z,31.7
2022-08-07T07:56:47.705Z,31.1
2022-08-07T07:59:16.278Z,31.3
2022-08-07T08:02:22.386Z,31.3
2022-08-07T08:05:14.403Z,31.2
2022-08-07T08:07:35.574Z,31.3
2022-08-07T08:10:06.886Z,30.8
2022-08-07T08:13:10.431Z,31
2022-08-07T08:15:26.945Z,30.3
2022-08-07T08:18:56.148Z,30.4
2022-08-07T08:22:32.613Z,30.3
2022-08-07T08:25:04.630Z,30.6
2022-08-07T08:27:35.693Z,30.6
2022-08-07T08:29:58.121Z,30.5
2022-08-07T08:32:57.143Z,30.8
2022-08-07T08:35:11.976Z,30.8
2022-08-07T08:38:05.962Z,30.6
2022-08-07T08:40:33.050Z,30.4
2022-08-07T08:43:01.618Z,30.6
2022-08-07T08:45:16.664Z,30.4
2022-08-07T08:47:53.018Z,30.9
2022-08-07T08:50:28.474Z,30.9
2022-08-07T08:53:04.251Z,30.6
2022-08-07T08:55:20.955Z,30.8
2022-08-07T08:57:45.128Z,30.7
2022-08-07T09:00:00.065Z,30.4
2022-08-07T09:02:34.914Z,30.5
2022-08-07T09:04:52.450Z,30.7
2022-08-07T09:07:11.104Z,30.6
2022-08-07T09:09:23.880Z,30.3
2022-08-07T09:11:54.487Z,27.6
2022-08-07T09:14:18.618Z,30.5
2022-08-07T09:18:06.045Z,32
2022-08-07T09:20:58.245Z,30.6
2022-08-07T09:26:11.307Z,30.3
2022-08-07T09:30:09.602Z,30.9
2022-08-07T09:32:24.918Z,30.8
2022-08-07T09:34:59.721Z,30.8
2022-08-07T09:38:11.601Z,30.9
2022-08-07T09:40:55.490Z,30.6
2022-08-07T09:43:18.040Z,30.7
2022-08-07T09:50:18.813Z,30.7
2022-08-07T09:53:22.171Z,30.8
2022-08-07T09:56:05.322Z,31
2022-08-07T09:58:32.081Z,31.2
2022-08-07T10:00:47.638Z,30.8
2022-08-07T10:04:32.739Z,30.9
2022-08-07T10:07:02.898Z,31
2022-08-07T10:09:34.472Z,30.8
2022-08-07T10:13:04.629Z,30.8
2022-08-07T10:15:48.519Z,30.6
2022-08-07T10:18:20.461Z,31.2
2022-08-07T10:20:34.860Z,30.9
2022-08-07T10:24:09.925Z,30.8
2022-08-07T10:26:29.338Z,30.8
2022-08-07T10:28:49.552Z,31.5
2022-08-07T10:31:02.958Z,31.6
2022-08-07T10:34:18.346Z,31.4
2022-08-07T10:36:48.833Z,31.4
2022-08-07T10:40:03.153Z,31.6
2022-08-07T10:42:38.157Z,32.1
2022-08-07T10:44:55.764Z,30.9
2022-08-07T10:47:31.467Z,31.5
2022-08-07T10:50:08.413Z,30.9
2022-08-07T10:53:02.690Z,25.9
2022-08-07T10:55:37.776Z,31.4
2022-08-07T10:57:51.649Z,31.4
2022-08-07T11:00:06.332Z,31.4
2022-08-07T11:03:10.860Z,31.5
2022-08-07T11:05:35.580Z,31.4
2022-08-07T11:08:33.410Z,31.5
2022-08-07T11:11:30.812Z,31.5
2022-08-07T11:15:02.941Z,31.3
2022-08-07T11:17:22.970Z,31.6
2022-08-07T11:19:45.643Z,31.1
2022-08-07T11:22:00.539Z,31.5
2022-08-07T11:24:19.346Z,30
2022-08-07T11:26:34.058Z,30.6
2022-08-07T11:29:40.681Z,31.6
2022-08-07T11:31:59.644Z,31.3
2022-08-07T11:34:35.745Z,31.4
2022-08-07T11:37:02.264Z,31.6
2022-08-07T11:39:28.418Z,28.8
2022-08-07T11:42:20.642Z,30.6
2022-08-07T11:44:59.912Z,30.3
2022-08-07T11:47:14.810Z,30.1
2022-08-07T11:51:08.985Z,29.2
2022-08-07T11:53:33.705Z,30.5
2022-08-07T11:56:44.675Z,30.6
2022-08-07T12:00:08.743Z,30.1
2022-08-07T12:02:34.746Z,29.3
2022-08-07T12:05:03.677Z,30.1
2022-08-07T12:08:03.910Z,30.1
2022-08-07T12:10:18.780Z,29.4
2022-08-07T12:12:57.322Z,29.4
2022-08-07T12:15:17.127Z,30.3
2022-08-07T12:18:08.079Z,31.1
2022-08-07T12:20:59.902Z,30
2022-08-07T12:25:17.833Z,30.8
2022-08-07T12:28:38.451Z,27.9
2022-08-07T12:30:54.202Z,29.5
2022-08-07T12:33:28.126Z,32.5
2022-08-07T12:35:57.655Z,29.4
2022-08-07T12:38:57.345Z,29.5
2022-08-07T12:41:55.718Z,30
2022-08-07T12:44:49.548Z,28.8
2022-08-07T12:47:06.357Z,29.9
2022-08-07T12:49:48.707Z,29.8
2022-08-07T12:52:33.857Z,29.4
2022-08-07T12:56:03.172Z,27.8
2022-08-07T12:58:18.599Z,28.8
2022-08-07T13:00:49.913Z,29.4
2022-08-07T13:02:56.931Z,28.5
2022-08-07T13:06:54.604Z,28.6
2022-08-07T13:11:23.814Z,29
2022-08-07T13:14:05.382Z,30.3
2022-08-07T13:16:20.073Z,31.4
2022-08-07T13:18:44.554Z,31.3
2022-08-07T13:21:07.996Z,31.4
2022-08-07T13:24:36.546Z,31.3
2022-08-07T13:26:51.403Z,31.3
2022-08-07T13:29:34.565Z,31.4
2022-08-07T13:32:00.026Z,31.4
2022-08-07T13:35:25.590Z,31.1
2022-08-07T13:38:03.235Z,31.1
2022-08-07T13:41:14.539Z,31.1
2022-08-07T13:43:29.371Z,30.9
2022-08-07T13:46:49.113Z,31.5
2022-08-07T13:50:44.247Z,29.6
2022-08-07T13:54:03.227Z,29.4
2022-08-07T13:56:18.812Z,31.6
2022-08-07T13:58:36.235Z,31.4
2022-08-07T14:00:54.454Z,31.4
2022-08-07T14:03:28.846Z,31.7
2022-08-07T14:05:57.277Z,31.4
2022-08-07T14:08:19.023Z,31.4
2022-08-07T14:11:17.628Z,31.6
2022-08-07T14:13:47.765Z,31.6
2022-08-07T14:16:02.585Z,31
2022-08-07T14:19:17.696Z,31.3
2022-08-07T14:23:31.860Z,31.4
2022-08-07T14:26:02.851Z,31.3
2022-08-07T14:30:12.409Z,31.5
2022-08-07T15:52:51.646Z,31.6
2022-08-07T15:55:11.271Z,31.6
2022-08-07T15:57:58.539Z,32.4
2022-08-07T16:00:22.689Z,31.3
2022-08-07T16:02:35.331Z,31.3
2022-08-07T16:05:03.442Z,32.1
2022-08-07T16:07:31.978Z,31
2022-08-07T16:10:33.247Z,31.2
2022-08-07T16:13:01.448Z,30.6
2022-08-07T16:16:02.306Z,30.9
2022-08-07T16:19:41.717Z,30
2022-08-07T16:22:56.880Z,31.8
2022-08-07T16:25:56.050Z,32.4
2022-08-07T16:29:18.955Z,32.3
2022-08-07T16:32:54.066Z,31.8
2022-08-07T16:36:32.136Z,30.3
2022-08-07T16:40:06.125Z,31.3
2022-08-07T16:42:21.455Z,30.8
2022-08-07T16:47:06.402Z,30.7
2022-08-07T16:51:13.735Z,32.3
2022-08-07T16:55:15.135Z,30.8
2022-08-07T16:58:08.153Z,31.1
2022-08-07T17:00:49.981Z,30.9
2022-08-07T17:03:29.044Z,31.1
2022-08-07T17:07:05.232Z,32.8
2022-08-07T17:10:33.590Z,32.2
2022-08-07T17:13:22.927Z,31.4
2022-08-07T17:16:05.316Z,32.2
2022-08-07T17:18:20.215Z,32.2
2022-08-07T17:21:18.674Z,32.5
2022-08-07T17:23:32.175Z,32.3
2022-08-07T17:25:53.556Z,32.1
2022-08-07T17:28:20.157Z,32.5
2022-08-07T17:31:20.869Z,32.1
2022-08-07T17:34:38.844Z,32.4
2022-08-07T17:38:35.104Z,31.1
2022-08-07T17:41:12.217Z,31
2022-08-07T17:44:45.347Z,32.6
2022-08-07T17:46:58.139Z,31.2
2022-08-07T17:49:14.280Z,32.1
2022-08-07T17:51:49.466Z,32.1
2022-08-07T17:54:53.431Z,31.4
2022-08-07T17:57:20.976Z,31.8
2022-08-07T17:59:50.497Z,31.9
2022-08-07T18:02:08.197Z,31.1
2022-08-07T18:04:37.052Z,32.2
2022-08-07T18:07:28.636Z,32.4
2022-08-07T18:10:29.174Z,32.4
2022-08-07T18:14:03.637Z,32.1
2022-08-07T18:16:30.939Z,32.1
2022-08-07T18:22:26.177Z,32.1
2022-08-07T18:25:18.952Z,32.4
2022-08-07T18:27:34.433Z,32.3
2022-08-07T18:30:53.806Z,31.3
2022-08-07T18:33:11.102Z,31.2
2022-08-07T18:35:57.227Z,32.4
2022-08-07T18:40:54.940Z,31.9
2022-08-07T18:43:05.684Z,32.2
2022-08-07T18:46:46.261Z,32.1
2022-08-07T18:51:03.426Z,31.8
2022-08-07T18:54:32.561Z,31.9
2022-08-07T18:57:58.436Z,31.7
2022-08-07T19:00:37.397Z,31.9
2022-08-07T19:03:54.560Z,31.8
2022-08-07T19:06:37.479Z,31.3
2022-08-07T19:08:54.142Z,32.5
2022-08-07T19:12:04.393Z,31.8
2022-08-07T19:14:07.836Z,31.7
2022-08-07T19:18:25.211Z,31.8
2022-08-07T19:21:08.263Z,32
2022-08-07T19:24:00.205Z,31.6
2022-08-07T19:31:29.850Z,31.7
2022-08-07T19:34:14.805Z,31.8
2022-08-07T19:36:36.918Z,31.8
2022-08-07T19:39:00.466Z,31.6
2022-08-07T19:41:39.414Z,31.8
2022-08-07T19:44:23.593Z,31.6
2022-08-07T19:47:14.278Z,31.9
2022-08-07T19:49:56.859Z,31.5
2022-08-07T19:52:42.113Z,31.9
2022-08-07T19:58:12.397Z,31.9
2022-08-07T20:00:21.906Z,31.2
2022-08-07T20:02:51.958Z,32.2
2022-08-07T20:05:07.879Z,31.2
2022-08-07T20:07:51.038Z,32
2022-08-07T20:11:34.429Z,32.3
2022-08-07T20:14:31.296Z,32.4
2022-08-07T20:16:54.297Z,32.2
2022-08-07T20:19:05.205Z,32.2
2022-08-07T20:21:23.919Z,32.4
2022-08-07T20:23:54.032Z,31.1
2022-08-07T20:26:10.192Z,31.9
2022-08-07T20:28:36.143Z,32.1
2022-08-07T20:31:09.843Z,31.9
2022-08-07T20:33:38.808Z,31.7
2022-08-07T20:36:19.336Z,31.1
2022-08-07T20:38:53.582Z,32.1
2022-08-07T20:42:05.294Z,31.8
2022-08-07T20:44:20.183Z,32.1
2022-08-07T20:47:59.693Z,32.1
2022-08-07T20:51:15.480Z,31.1
2022-08-07T20:54:07.282Z,32.3
2022-08-07T20:56:20.100Z,32
2022-08-07T20:58:36.121Z,31.9
2022-08-07T21:01:45.525Z,32
2022-08-07T21:04:23.506Z,32
2022-08-07T21:06:46.531Z,31.8
2022-08-07T21:09:00.556Z,31.1
2022-08-07T21:11:28.929Z,32.1
2022-08-07T21:14:29.978Z,32.3
2022-08-07T21:16:56.662Z,32.3
2022-08-07T21:20:26.523Z,32
2022-08-07T21:22:51.112Z,31.8
2022-08-07T21:24:59.372Z,31.1
2022-08-07T21:27:14.775Z,32.1
2022-08-07T21:29:52.952Z,30.6
2022-08-07T21:33:16.174Z,31.9
2022-08-07T21:35:35.055Z,32.4
2022-08-07T21:38:16.134Z,32.1
2022-08-07T21:40:51.311Z,31.6
2022-08-07T21:43:36.801Z,32.3
2022-08-07T21:46:41.942Z,32
2022-08-07T21:49:01.384Z,32.1
2022-08-07T21:52:29.404Z,31.5
2022-08-07T21:54:45.857Z,32.3
2022-08-07T21:57:11.053Z,32.2
2022-08-07T21:59:36.384Z,31.9
2022-08-07T22:02:41.123Z,31.7
2022-08-07T22:04:54.930Z,31.9
2022-08-07T22:07:18.787Z,31.9
2022-08-07T22:09:56.019Z,31.9
2022-08-07T22:12:24.617Z,31.9
2022-08-07T22:15:02.211Z,31.8
2022-08-07T22:18:29.732Z,31.6
2022-08-07T22:20:44.686Z,31.9
2022-08-07T22:23:30.536Z,32.2
2022-08-07T22:25:45.446Z,32.3
2022-08-07T22:28:34.254Z,32.3
2022-08-07T22:30:51.999Z,32.4
2022-08-07T22:33:37.168Z,32.4
2022-08-07T22:36:00.943Z,32.2
2022-08-07T22:38:37.459Z,32
2022-08-07T22:40:54.493Z,32
2022-08-07T22:43:27.838Z,32
2022-08-07T22:47:06.576Z,32
2022-08-07T22:49:51.958Z,31.9
2022-08-07T22:52:04.542Z,31.4
2022-08-07T22:54:59.311Z,32.2
2022-08-07T22:57:19.124Z,31.8
2022-08-07T22:59:34.037Z,31.8
2022-08-07T23:01:51.682Z,31.7
2022-08-07T23:04:16.533Z,31.9
2022-08-07T23:07:57.863Z,32.1
2022-08-07T23:11:26.527Z,32.1
2022-08-07T23:14:09.269Z,32
2022-08-07T23:17:21.313Z,31.9
2022-08-07T23:19:51.551Z,31.8
2022-08-07T23:22:23.805Z,31.9
2022-08-07T23:25:09.182Z,31.9
2022-08-07T23:27:33.341Z,32.4
2022-08-07T23:31:11.204Z,32.1
2022-08-07T23:36:17.215Z,32
2022-08-07T23:38:59.585Z,31.8
2022-08-07T23:41:14.580Z,32.3
2022-08-07T23:43:37.800Z,31.8
2022-08-07T23:46:20.038Z,31.8
2022-08-07T23:48:34.872Z,31.5
2022-08-07T23:50:54.402Z,31.6
2022-08-07T23:55:04.498Z,32.5
2022-08-07T23:57:41.807Z,32.1
